Detall de PIREP

Printer-friendly versionPDF version

[2014/11/17 11:12:00]
Flight IATA:CT0001
Pilot Number:042
Company ICAO:CAT
Aircraft Type:A320/E
PAX:95
Departing Airport: LEBL
Destination Airport: LEAL
Alternate Airport:LEGR
Online: VATSIM
Route:LOTOS UM985 VLC

Flight Level:F290
No Slew and time accel
No pause
Crash detect
Detect pilot in Cockpit between each 30 and 45 minutes
11:12 Zero fuel Weight: 79539 Lbs, Fuel Weight: 33044 Lbs
11:12 VATSIM:LEBL 170900Z 32012G23KT 290V360 9999 FEW030 13/05 Q1007 NOSIG
11:12 VATSIM:LEAL 170900Z VRB02KT 9999 FEW030 15/05 Q1011 NOSIG
11:17 Parking Brakes off
11:26 Take-off
11:26 Take off Weight: 133737 Lbs
11:26 Wind: 093º @ 008 Knots Heading: 244º
11:26 POS N41º 17´ 11´´ E002º 05´ 12´´
11:26 Gear Up: 136 Knots
11:26 Flaps:3 at 136 Knots
11:27 Flaps:2 at 147 Knots
11:27 Flaps:0 at 186 Knots
11:39 TOC
11:39 Fuel Weight: 30140 Lb
11:41 Wind:012º@020 Knots Heading: 228º Ground Speed: 468 Knots Altitude 29120 ft
11:50 TOD
11:50 Fuel Weight: 29034 Lb
11:56 Wind:315º@010 Knots Heading: 196º Ground Speed: 356 Knots Altitude 12975 ft
12:03 Flaps:1 at 198 Knots
12:04 Gear Down: 182 Knots
12:04 Flaps:2 at 182 Knots
12:04 Flaps:3 at 183 Knots
12:05 Flaps:4 at 181 Knots
12:05 Flaps:5 at 171 Knots
12:08 TouchDown:Rate -254 ft/min Speed: 137 Knots
12:08 VATSIM:LEAL 171200Z 28012KT 240V320 9999 FEW020 19/04 Q1011 NOSIG
12:08 Land
12:08 Wind:103º@007 Knots
12:08 Heading: 095º
12:08 Flight Duration: 00:42
12:08 Landing Weight: 129594 Lbs
12:08 POS N38º 16´ 55´´ W000º 33´ 28´´
12:10 Parking brakes on
12:10 Block to Block Duration: 00:53
12:10 Final Fuel: 28148 Lbls
12:10 Spent Fuel: 4896 Lbls
12:10 Flight Length: 244 NM
12:10 TOD Land Length: 83 NM

Exportar CSV

Powered by Drupal - Modified by Danger4k